TAF LDDU 280525Z 2806/2906 08005KT CAVOK
                 TX33/2812Z TN24/2903Z
    PROB30 TEMPO 2812/2818 30008KT=
TAF LDDU 272325Z 2800/2900 08005KT CAVOK
                 TX34/2812Z TN25/2803Z
           TEMPO 2812/2821 30008KT=
TAF LDDU 271725Z 2718/2818 09005KT CAVOK
                 TX34/2812Z TN25/2803Z
           TEMPO 2719/2803 09009KT
           BECMG 2810/2812 29008KT=
TAF LDDU 271125Z 2712/2812 20006KT CAVOK
                 TX33/2811Z TN25/2803Z
          PROB40 2718/2803 09008KT
           BECMG 2810/2812 29008KT=
TAF LDDU 270525Z 2706/2806 20007KT CAVOK
                 TX32/2715Z TN25/2803Z=
TAF LDDU 262325Z 2700/2800 09006KT CAVOK
                 TX32/2712Z TN24/2701Z
          PROB40 2711/2716 29008KT=